Time;durP1;ratioP1;P1;durP2;ratioP2;P2;SDS_P1;SDS_P2;PMS_P1;PMS_P2;Temp;Humidity;BMP_temperature;BMP_pressure;BME280_temperature;BME280_humidity;BME280_pressure;Samples;Min_cycle;Max_cycle;Signal;HPM_P1;HPM_P2
2022/05/12 00:00:17;;;;;;;6.77;3.40;;;;;;;9.81;74.62;96011.58;1762875;81;21054;-70
2022/05/12 00:02:46;;;;;;;4.70;3.30;;;;;;;9.71;74.93;96015.61;1762452;81;21480;-70
2022/05/12 00:05:14;;;;;;;5.10;3.83;;;;;;;9.69;74.35;96015.19;1762613;81;20963;-71
2022/05/12 00:07:43;;;;;;;4.80;4.07;;;;;;;9.71;74.45;96009.02;1762595;81;21046;-71
2022/05/12 00:10:13;;;;;;;5.33;4.10;;;;;;;9.72;74.37;96009.44;1762564;81;21074;-71
2022/05/12 00:12:41;;;;;;;6.60;4.03;;;;;;;9.73;74.66;96009.02;1762385;81;21038;-71
2022/05/12 00:15:13;;;;;;;6.80;4.43;;;;;;;9.63;75.07;96010.84;1762595;81;21033;-70
2022/05/12 00:17:41;;;;;;;4.67;4.00;;;;;;;9.54;75.75;96012.23;1762786;81;21034;-70
2022/05/12 00:20:10;;;;;;;5.10;3.33;;;;;;;9.51;75.26;96015.77;1762370;81;20971;-70
2022/05/12 00:22:37;;;;;;;6.10;4.37;;;;;;;9.45;74.51;96009.66;1762659;81;21034;-70
2022/05/12 00:25:08;;;;;;;5.47;4.00;;;;;;;9.43;75.14;96013.64;1762555;81;21122;-70
2022/05/12 00:27:35;;;;;;;4.57;3.83;;;;;;;9.41;75.61;96010.58;1761803;81;21038;-70
2022/05/12 00:30:04;;;;;;;6.80;3.50;;;;;;;9.36;75.18;96008.43;1762247;81;21026;-70
2022/05/12 00:32:31;;;;;;;6.37;3.67;;;;;;;9.27;74.74;96009.34;1762722;81;21062;-70
2022/05/12 00:34:57;;;;;;;5.47;3.53;;;;;;;9.18;75.20;96006.80;1762372;81;21030;-70
2022/05/12 00:37:24;;;;;;;6.20;3.83;;;;;;;9.08;75.95;96006.84;1762698;81;21054;-70
2022/05/12 00:39:51;;;;;;;6.93;4.27;;;;;;;9.03;77.00;96003.37;1762457;81;21473;-71
2022/05/12 00:42:17;;;;;;;4.87;4.03;;;;;;;8.98;77.05;96010.87;1761894;81;21821;-70
2022/05/12 00:44:43;;;;;;;4.67;3.43;;;;;;;8.96;76.42;96008.68;1762827;81;21022;-71
2022/05/12 00:47:10;;;;;;;7.40;3.80;;;;;;;8.87;78.10;96008.30;1762568;81;21006;-71
2022/05/12 00:49:40;;;;;;;5.63;3.87;;;;;;;8.80;77.73;96012.71;1762626;81;21025;-71
2022/05/12 00:52:17;;;;;;;7.17;3.97;;;;;;;8.73;78.13;96008.80;1762555;81;21038;-70
2022/05/12 00:54:49;;;;;;;5.83;3.90;;;;;;;8.62;78.36;96008.86;1762498;81;21007;-71
2022/05/12 00:57:26;;;;;;;7.07;3.77;;;;;;;8.57;77.89;96014.13;1762418;81;21038;-71
2022/05/12 00:59:54;;;;;;;5.43;4.37;;;;;;;8.62;77.87;96012.36;1761555;81;21500;-71
2022/05/12 01:02:21;;;;;;;5.97;4.00;;;;;;;8.72;77.83;96015.83;1762517;81;21067;-71
2022/05/12 01:04:49;;;;;;;5.23;3.47;;;;;;;8.82;77.74;96010.05;1762866;81;21002;-70
2022/05/12 01:07:16;;;;;;;5.47;3.73;;;;;;;8.80;77.47;96017.97;1762851;81;21055;-70
2022/05/12 01:09:43;;;;;;;4.20;3.13;;;;;;;8.82;77.31;96003.06;1762266;81;21032;-70
2022/05/12 01:12:12;;;;;;;5.10;3.10;;;;;;;8.81;77.86;96012.27;1762336;81;21559;-70
2022/05/12 01:14:39;;;;;;;7.27;4.00;;;;;;;8.79;77.42;96014.02;1762711;81;21555;-70
2022/05/12 01:17:06;;;;;;;5.33;3.70;;;;;;;8.78;77.13;96005.70;1762309;81;21086;-71
2022/05/12 01:19:37;;;;;;;5.87;3.63;;;;;;;8.78;76.93;96001.77;1762638;81;20998;-71
2022/05/12 01:22:08;;;;;;;4.63;3.60;;;;;;;8.80;77.16;96006.13;1762324;81;21053;-71
2022/05/12 01:24:39;;;;;;;4.77;3.40;;;;;;;8.86;77.11;96007.84;1762611;81;20998;-71
2022/05/12 01:27:20;;;;;;;8.30;3.97;;;;;;;8.84;77.21;96003.93;1763460;81;21500;-71
2022/05/12 01:29:52;;;;;;;6.00;3.70;;;;;;;8.81;77.59;96004.37;1766063;81;21014;-71
2022/05/12 01:32:22;;;;;;;6.57;3.40;;;;;;;8.79;76.90;96012.70;1764948;81;21003;-71
2022/05/12 01:34:49;;;;;;;6.30;3.77;;;;;;;8.81;77.43;96001.29;1766808;81;21018;-71
2022/05/12 01:37:15;;;;;;;4.90;3.50;;;;;;;8.79;77.33;96013.58;1766155;81;21027;-71
2022/05/12 01:39:42;;;;;;;3.97;3.37;;;;;;;8.75;77.63;96010.99;1766306;81;21002;-70
2022/05/12 01:42:12;;;;;;;5.07;3.17;;;;;;;8.71;77.67;96005.30;1766008;81;21113;-70
2022/05/12 01:44:40;;;;;;;8.83;3.90;;;;;;;8.65;77.53;96008.84;1765968;81;21053;-70
2022/05/12 01:47:09;;;;;;;3.63;3.30;;;;;;;8.55;77.67;96006.69;1766284;81;21495;-71
2022/05/12 01:49:36;;;;;;;4.33;3.27;;;;;;;8.56;78.71;96010.19;1766161;81;21553;-70
2022/05/12 01:52:04;;;;;;;4.73;3.40;;;;;;;8.48;78.15;96002.33;1766381;81;21058;-70
2022/05/12 01:54:31;;;;;;;4.60;3.50;;;;;;;8.50;78.15;96001.89;1766357;81;21046;-70
2022/05/12 01:56:58;;;;;;;6.47;3.70;;;;;;;8.40;79.29;96013.32;1766014;81;21003;-71
2022/05/12 01:59:25;;;;;;;5.27;4.27;;;;;;;8.42;79.33;96010.25;1765860;81;21588;-71
2022/05/12 02:01:52;;;;;;;5.97;4.23;;;;;;;8.38;78.92;96011.09;1766475;81;21011;-71
2022/05/12 02:04:19;;;;;;;9.77;3.97;;;;;;;8.30;79.73;96012.44;1765920;81;21023;-71
2022/05/12 02:06:46;;;;;;;8.83;4.10;;;;;;;8.33;78.98;96014.18;1766019;81;21133;-70
2022/05/12 02:09:13;;;;;;;7.73;4.60;;;;;;;8.34;79.60;96006.72;1766297;81;22362;-71
2022/05/12 02:11:40;;;;;;;7.10;3.83;;;;;;;8.31;79.45;96012.86;1765884;81;21512;-70
2022/05/12 02:14:09;;;;;;;5.13;3.80;;;;;;;8.21;80.18;96012.03;1766232;81;21129;-71
2022/05/12 02:16:36;;;;;;;4.13;3.37;;;;;;;8.18;79.39;96013.78;1766139;81;21027;-70
2022/05/12 02:19:08;;;;;;;7.60;3.50;;;;;;;8.13;79.88;96004.59;1766275;81;20979;-70
2022/05/12 02:21:35;;;;;;;5.97;4.10;;;;;;;8.05;79.90;96010.31;1766362;81;21018;-70
2022/05/12 02:24:03;;;;;;;5.37;4.07;;;;;;;7.97;79.61;96007.70;1766121;81;21062;-70
2022/05/12 02:26:31;;;;;;;5.43;3.83;;;;;;;7.98;79.74;96009.88;1766033;81;21066;-70
2022/05/12 02:28:59;;;;;;;6.60;4.20;;;;;;;7.93;80.29;96009.02;1762731;81;21014;-70
2022/05/12 02:31:26;;;;;;;5.97;3.70;;;;;;;7.88;81.13;96009.46;1762461;81;21006;-70
2022/05/12 02:33:53;;;;;;;6.27;3.77;;;;;;;7.87;80.30;96005.97;1762516;81;20998;-70
2022/05/12 02:36:20;;;;;;;5.00;3.63;;;;;;;7.80;80.88;96006.41;1762432;81;21127;-71
2022/05/12 02:38:47;;;;;;;4.63;3.83;;;;;;;7.76;81.07;96009.02;1762464;81;21533;-70
2022/05/12 02:41:13;;;;;;;3.90;3.50;;;;;;;7.76;80.66;96012.55;1762676;81;20967;-71
2022/05/12 02:43:40;;;;;;;5.00;4.07;;;;;;;7.75;81.39;96017.80;1762488;81;21033;-71
2022/05/12 02:46:11;;;;;;;5.73;4.43;;;;;;;7.78;81.38;96012.09;1762304;81;21086;-71
2022/05/12 02:48:42;;;;;;;6.87;3.40;;;;;;;7.80;80.87;96015.59;1762485;81;21515;-71
2022/05/12 02:51:10;;;;;;;4.63;3.83;;;;;;;7.83;80.65;96016.03;1762488;81;21026;-71
2022/05/12 02:53:37;;;;;;;5.20;3.60;;;;;;;7.82;81.04;96014.30;1762083;81;21070;-71
2022/05/12 02:56:05;;;;;;;5.43;3.77;;;;;;;7.92;81.50;96017.78;1762488;81;21484;-70
2022/05/12 02:58:34;;;;;;;4.90;3.50;;;;;;;7.93;80.98;96016.45;1762563;81;21061;-70
2022/05/12 03:01:01;;;;;;;5.23;3.50;;;;;;;7.96;80.94;96018.20;1762414;81;20998;-70
2022/05/12 03:03:29;;;;;;;9.30;4.13;;;;;;;8.01;80.82;96019.97;1762333;81;21107;-70
2022/05/12 03:05:56;;;;;;;7.73;3.73;;;;;;;8.15;80.98;96023.00;1762510;81;21054;-70
2022/05/12 03:08:23;;;;;;;5.77;4.87;;;;;;;8.18;80.20;96019.91;1762298;81;21049;-70
2022/05/12 03:10:51;;;;;;;5.67;4.83;;;;;;;8.06;79.80;96026.50;1762395;81;21054;-70
2022/05/12 03:13:18;;;;;;;6.83;3.33;;;;;;;8.04;80.23;96024.34;1762199;81;21034;-70
2022/05/12 03:15:45;;;;;;;4.10;3.30;;;;;;;8.06;80.34;96025.63;1762378;81;21484;-71
2022/05/12 03:18:12;;;;;;;4.50;3.80;;;;;;;8.06;80.17;96032.20;1762559;81;21023;-70
2022/05/12 03:20:38;;;;;;;4.50;3.53;;;;;;;8.06;80.46;96029.13;1762736;81;21011;-71
2022/05/12 03:23:05;;;;;;;5.53;3.57;;;;;;;8.07;80.30;96028.27;1762855;81;21002;-71
2022/05/12 03:25:32;;;;;;;5.23;3.03;;;;;;;8.08;80.51;96032.63;1762939;81;20991;-70
2022/05/12 03:28:00;;;;;;;5.70;4.40;;;;;;;8.10;80.91;96028.70;1763745;81;21536;-70
2022/05/12 03:30:26;;;;;;;4.23;3.50;;;;;;;8.12;80.42;96029.14;1766278;81;21066;-70
2022/05/12 03:32:53;;;;;;;6.40;4.20;;;;;;;8.11;80.33;96029.99;1766486;81;21018;-70
2022/05/12 03:35:20;;;;;;;5.03;3.50;;;;;;;8.19;80.91;96026.94;1766488;81;21448;-70
2022/05/12 03:37:47;;;;;;;5.70;4.27;;;;;;;8.22;80.56;96026.05;1766456;81;21014;-70
2022/05/12 03:40:17;;;;;;;5.80;4.27;;;;;;;8.23;80.06;96036.55;1766495;81;21002;-70
2022/05/12 03:42:45;;;;;;;4.63;3.83;;;;;;;8.24;80.08;96026.92;1766301;81;21555;-70
2022/05/12 03:45:13;;;;;;;7.73;5.00;;;;;;;8.22;81.15;96036.56;1766357;81;20998;-70
2022/05/12 03:47:44;;;;;;;4.77;3.97;;;;;;;8.27;81.11;96030.86;1766375;81;21010;-70
2022/05/12 03:50:15;;;;;;;5.80;5.00;;;;;;;8.35;81.21;96030.83;1766117;81;21077;-70
2022/05/12 03:52:42;;;;;;;6.73;5.03;;;;;;;8.45;81.30;96020.75;1766161;81;21098;-71
2022/05/12 03:55:16;;;;;;;6.40;4.80;;;;;;;8.59;80.92;96024.63;1766451;81;21017;-71
2022/05/12 03:57:41;;;;;;;9.83;5.37;;;;;;;8.66;80.75;96026.36;1765012;81;21031;-70
2022/05/12 04:00:11;;;;;;;8.73;5.60;;;;;;;8.73;80.54;96026.77;1766366;81;21017;-71
2022/05/12 04:02:39;;;;;;;11.33;6.77;;;;;;;8.82;80.62;96029.37;1766485;81;21608;-70
2022/05/12 04:05:08;;;;;;;13.47;7.90;;;;;;;8.91;80.39;96033.70;1766272;81;21089;-70
2022/05/12 04:07:35;;;;;;;12.70;8.27;;;;;;;8.98;80.01;96028.84;1766356;81;21560;-71
2022/05/12 04:10:03;;;;;;;12.57;8.10;;;;;;;9.01;79.48;96029.27;1766353;81;21110;-70
2022/05/12 04:12:29;;;;;;;14.90;8.50;;;;;;;9.00;79.89;96027.08;1766549;81;21026;-70
2022/05/12 04:14:56;;;;;;;13.10;7.60;;;;;;;9.07;79.83;96032.75;1766088;81;21026;-70
2022/05/12 04:17:22;;;;;;;11.30;7.57;;;;;;;9.13;80.11;96031.83;1766330;81;21504;-70
2022/05/12 04:19:50;;;;;;;10.67;7.63;;;;;;;9.20;80.13;96030.91;1766682;81;21010;-70
2022/05/12 04:22:17;;;;;;;10.53;7.70;;;;;;;9.29;80.12;96034.78;1766410;81;21018;-70
2022/05/12 04:24:43;;;;;;;13.33;7.50;;;;;;;9.40;80.46;96031.20;1766278;81;21441;-70
2022/05/12 04:27:10;;;;;;;14.27;8.83;;;;;;;9.48;80.43;96034.68;1766441;81;21038;-70
2022/05/12 04:29:42;;;;;;;16.93;9.77;;;;;;;9.52;80.35;96037.29;1762688;81;21342;-70
2022/05/12 04:32:10;;;;;;;14.00;9.17;;;;;;;9.64;80.23;96037.61;1762309;81;20987;-70
2022/05/12 04:37:30;;;;;;;11.67;7.93;;;;;;;9.87;79.81;96036.10;1762670;81;21106;-70
2022/05/12 04:40:11;;;;;;;10.53;7.53;;;;;;;10.00;79.57;96038.63;1762459;81;20975;-70
2022/05/12 04:42:38;;;;;;;13.33;7.10;;;;;;;10.10;79.07;96031.06;1762571;81;21010;-71
2022/05/12 04:45:07;;;;;;;11.67;7.37;;;;;;;10.19;78.96;96037.58;1762362;81;21006;-70
2022/05/12 04:47:34;;;;;;;9.47;6.80;;;;;;;10.31;78.78;96037.94;1762585;81;21018;-70
2022/05/12 04:50:03;;;;;;;10.37;6.47;;;;;;;10.46;79.10;96028.95;1762519;81;21105;-70
2022/05/12 04:52:29;;;;;;;9.20;6.57;;;;;;;10.63;78.94;96032.28;1762376;81;20983;-70
2022/05/12 04:54:56;;;;;;;8.20;6.00;;;;;;;10.80;79.00;96027.67;1762413;81;21026;-70
2022/05/12 04:57:23;;;;;;;11.43;6.27;;;;;;;10.99;78.64;96028.78;1762742;81;21003;-69
2022/05/12 04:59:55;;;;;;;8.23;5.97;;;;;;;11.17;78.58;96031.61;1761715;81;21519;-67
2022/05/12 05:02:19;;;;;;;14.00;6.03;;;;;;;11.32;78.72;96029.20;1761554;81;21529;-68
2022/05/12 05:04:46;;;;;;;13.40;6.00;;;;;;;11.50;78.15;96028.05;1762559;81;20986;-69
2022/05/12 05:07:12;;;;;;;18.13;6.67;;;;;;;11.66;78.10;96029.55;1761562;81;21508;-71
2022/05/12 05:09:41;;;;;;;11.95;5.17;;;;;;;11.83;78.02;96025.31;1762142;81;21650;-68
2022/05/12 05:12:09;;;;;;;14.60;5.83;;;;;;;12.03;77.38;96027.20;1762070;81;21097;-69
2022/05/12 05:14:36;;;;;;;11.45;5.15;;;;;;;12.24;77.15;96021.97;1762058;81;21073;-71
2022/05/12 05:17:03;;;;;;;22.03;7.13;;;;;;;12.49;76.91;96020.20;1762447;81;21030;-70
2022/05/12 05:19:31;;;;;;;21.75;6.42;;;;;;;12.71;76.01;96024.17;1762524;81;21496;-67
2022/05/12 05:21:58;;;;;;;21.12;5.90;;;;;;;12.96;76.15;96020.56;1762254;81;21002;-71
2022/05/12 05:24:24;;;;;;;17.12;5.72;;;;;;;13.19;75.16;96023.17;1762608;81;21464;-71
2022/05/12 05:26:51;;;;;;;19.65;5.80;;;;;;;13.36;74.04;96018.87;1762403;81;21047;-71
2022/05/12 05:29:18;;;;;;;21.42;6.87;;;;;;;13.49;73.04;96018.12;1761956;81;21058;-66
2022/05/12 05:31:44;;;;;;;15.88;6.40;;;;;;;13.66;73.06;96019.94;1762590;81;21053;-71
2022/05/12 05:34:12;;;;;;;13.95;6.60;;;;;;;13.79;72.17;96020.51;1762304;81;21211;-68
2022/05/12 05:36:42;;;;;;;13.55;6.12;;;;;;;13.94;71.95;96022.78;1762574;81;21058;-69
2022/05/12 05:39:07;;;;;;;11.35;5.40;;;;;;;14.06;71.58;96022.48;1762181;81;21046;-68
2022/05/12 05:41:36;;;;;;;11.65;6.58;;;;;;;14.20;71.25;96019.45;1762487;81;21043;-71
2022/05/12 05:44:04;;;;;;;11.85;6.28;;;;;;;14.34;70.42;96010.25;1762443;81;21011;-69
2022/05/12 05:46:31;;;;;;;11.35;6.22;;;;;;;14.46;70.73;96012.14;1762438;81;21512;-68
2022/05/12 05:48:57;;;;;;;14.75;6.33;;;;;;;14.62;70.48;96017.06;1762393;81;21054;-70
2022/05/12 05:54:10;;;;;;;8.18;6.85;;;;;;;14.88;69.71;96011.88;1762316;81;21082;-70
2022/05/12 05:56:36;;;;;;;72.62;63.05;;;;;;;15.04;69.76;96013.61;1762597;81;20955;-73
2022/05/12 05:59:03;;;;;;;16.27;11.20;;;;;;;15.21;69.61;96014.91;1762240;81;20971;-71
2022/05/12 06:01:30;;;;;;;12.35;8.13;;;;;;;15.39;69.66;96018.80;1762486;81;21010;-70
2022/05/12 06:03:58;;;;;;;9.10;5.92;;;;;;;15.58;69.69;96014.66;1762386;81;21057;-68
2022/05/12 06:06:25;;;;;;;8.35;4.97;;;;;;;15.76;69.41;96011.44;1762484;81;21002;-68
2022/05/12 06:08:52;;;;;;;10.70;5.22;;;;;;;15.91;68.28;96007.41;1762375;81;21072;-68
2022/05/12 06:11:18;;;;;;;12.07;5.75;;;;;;;16.19;66.64;96012.67;1762384;81;21007;-68
2022/05/12 06:13:47;;;;;;;12.75;5.90;;;;;;;16.47;64.96;96005.06;1762509;81;21500;-72
2022/05/12 06:16:14;;;;;;;11.08;5.28;;;;;;;16.76;63.93;96007.17;1762311;81;21018;-68
2022/05/12 06:18:41;;;;;;;6.50;3.95;;;;;;;16.98;64.84;96000.13;1762384;81;21509;-70
2022/05/12 06:21:12;;;;;;;8.20;3.98;;;;;;;17.24;59.80;95997.83;1762461;81;21066;-67
2022/05/12 06:23:40;;;;;;;10.23;4.60;;;;;;;17.49;58.33;96004.89;1762456;81;21030;-71
2022/05/12 06:26:13;;;;;;;8.98;4.67;;;;;;;17.71;59.13;96000.44;1762552;81;22370;-69
2022/05/12 06:28:36;;;;;;;10.15;4.17;;;;;;;17.87;57.85;96006.52;1761427;80;21088;-69
2022/05/12 06:31:03;;;;;;;9.38;4.40;;;;;;;18.16;59.52;95997.29;1759353;81;20990;-70
2022/05/12 06:33:29;;;;;;;10.53;5.12;;;;;;;18.16;59.52;95997.29;1754389;81;20987;-70
2022/05/12 06:35:58;;;;;;;5.58;3.75;;;;;;;18.32;58.00;95996.16;1755790;81;21012;-70
2022/05/12 06:38:25;;;;;;;8.90;4.17;;;;;;;18.46;57.44;95993.78;1757102;81;20999;-68
2022/05/12 06:40:53;;;;;;;5.75;4.30;;;;;;;18.57;57.19;95999.98;1758318;81;21689;-66
2022/05/12 06:43:20;;;;;;;17.98;4.78;;;;;;;18.64;57.14;95981.89;1756887;81;21003;-73
2022/05/12 06:45:47;;;;;;;7.58;4.35;;;;;;;18.80;54.20;95996.36;1759570;81;20963;-69
2022/05/12 06:48:14;;;;;;;13.98;4.28;;;;;;;18.90;54.99;95996.34;1759887;81;21118;-74
2022/05/12 06:50:40;;;;;;;12.13;4.22;;;;;;;19.04;55.96;95997.04;1760267;81;21018;-70
2022/05/12 06:53:07;;;;;;;12.33;3.92;;;;;;;19.19;55.59;95994.14;1760100;81;20990;-70
2022/05/12 06:55:34;;;;;;;7.10;4.00;;;;;;;19.34;55.97;95994.76;1760306;81;20978;-70
2022/05/12 06:58:00;;;;;;;8.07;4.13;;;;;;;19.44;53.70;95989.84;1760656;81;21524;-70
2022/05/12 07:00:27;;;;;;;13.55;4.53;;;;;;;19.55;54.18;95993.34;1760390;81;21029;-67
2022/05/12 07:02:55;;;;;;;10.82;3.92;;;;;;;19.70;53.62;95999.33;1760560;81;21103;-69
2022/05/12 07:05:25;;;;;;;6.12;3.37;;;;;;;19.85;54.01;95996.38;1766779;81;21007;-68
2022/05/12 07:07:54;;;;;;;8.73;4.03;;;;;;;19.99;54.13;95999.73;1778360;81;21496;-69
2022/05/12 07:10:24;;;;;;;8.18;4.05;;;;;;;20.12;53.12;95994.64;1776771;80;21007;-70
2022/05/12 07:12:52;;;;;;;4.30;3.72;;;;;;;20.23;53.55;95993.62;1777925;81;21536;-70
2022/05/12 07:15:21;;;;;;;6.25;3.58;;;;;;;20.37;51.68;95987.58;1778113;80;21058;-69
2022/05/12 07:17:48;;;;;;;4.62;3.85;;;;;;;20.48;47.58;95989.22;1778308;81;20995;-70
2022/05/12 07:28:37;;;;;;;3.45;3.15;;;;;;;20.84;45.41;95990.50;1762410;81;20986;-68
2022/05/12 07:31:09;;;;;;;7.47;3.40;;;;;;;20.97;46.69;95993.40;1747465;81;21058;-70
2022/05/12 07:33:42;;;;;;;8.33;3.20;;;;;;;21.05;45.59;95987.62;1758539;81;21010;-69
2022/05/12 07:36:16;;;;;;;9.45;8.48;;;;;;;21.11;45.42;95993.50;1770682;79;21543;-69
2022/05/12 07:38:43;;;;;;;5.28;3.50;;;;;;;21.23;44.50;95999.17;1754196;80;20993;-70
2022/05/12 07:41:12;;;;;;;3.50;3.17;;;;;;;21.33;44.67;96000.41;1771373;79;21469;-70
2022/05/12 07:43:40;;;;;;;5.60;3.02;;;;;;;21.39;43.72;96003.66;1773241;80;20956;-69
2022/05/12 07:46:08;;;;;;;5.67;3.35;;;;;;;21.46;42.45;96000.63;1785728;80;21003;-71
2022/05/12 07:48:35;;;;;;;5.47;3.22;;;;;;;21.53;43.74;96000.69;1780639;80;21026;-69
2022/05/12 07:51:02;;;;;;;5.20;3.47;;;;;;;21.50;42.59;96002.20;1778230;80;21469;-71
2022/05/12 07:53:29;;;;;;;9.35;3.42;;;;;;;21.51;44.52;96007.47;1786895;79;21098;-73
2022/05/12 07:55:56;;;;;;;9.68;3.60;;;;;;;21.63;44.54;96005.07;1784037;80;20996;-71
2022/05/12 07:58:23;;;;;;;5.30;3.00;;;;;;;21.80;45.00;96009.02;1779903;80;21457;-73
2022/05/12 08:00:50;;;;;;;4.37;3.08;;;;;;;21.72;41.40;96007.22;1783911;80;21023;-70
2022/05/12 08:03:17;;;;;;;5.05;3.30;;;;;;;21.70;42.59;96009.16;1785083;80;21001;-68
2022/05/12 08:05:44;;;;;;;6.87;3.67;;;;;;;21.78;43.13;96014.47;1784920;80;21018;-67
2022/05/12 08:08:12;;;;;;;6.70;3.35;;;;;;;21.84;41.82;96010.56;1784613;80;21050;-72
2022/05/12 08:10:39;;;;;;;3.60;3.22;;;;;;;21.98;42.55;96001.73;1760899;80;21440;-70
2022/05/12 08:13:14;;;;;;;5.87;3.30;;;;;;;21.99;39.49;96011.03;1734390;81;21552;-74
2022/05/12 08:15:35;;;;;;;4.20;2.95;;;;;;;21.88;40.69;96010.79;1765931;80;21005;-73
2022/05/12 08:18:01;;;;;;;3.98;3.40;;;;;;;21.85;41.33;96012.77;1751153;81;21016;-72
2022/05/12 08:20:28;;;;;;;3.60;3.20;;;;;;;21.87;42.18;96002.81;1779567;80;21035;-68
2022/05/12 08:22:54;;;;;;;6.58;3.35;;;;;;;22.00;40.02;96007.41;1784302;80;21018;-71
2022/05/12 08:25:21;;;;;;;8.15;3.10;;;;;;;21.85;38.97;96008.29;1785066;80;21058;-72
2022/05/12 08:27:47;;;;;;;3.25;2.37;;;;;;;21.80;40.43;96012.57;1781959;80;20999;-69
2022/05/12 08:30:17;;;;;;;5.30;3.58;;;;;;;21.85;39.52;96000.23;1782791;80;21089;-72
2022/05/12 08:32:44;;;;;;;4.55;3.42;;;;;;;21.76;41.21;96000.73;1787150;80;21347;-74
2022/05/12 08:35:12;;;;;;;7.65;3.52;;;;;;;21.97;41.19;96010.28;1787990;80;20991;-73
2022/05/12 08:37:39;;;;;;;5.83;3.22;;;;;;;22.21;40.30;96001.78;1791717;80;21105;-74
2022/05/12 08:40:14;;;;;;;3.65;3.20;;;;;;;22.30;38.93;95993.19;1789451;80;21015;-70
2022/05/12 08:42:45;;;;;;;4.00;3.22;;;;;;;22.40;38.76;96001.55;1775213;80;21035;-70
2022/05/12 08:45:16;;;;;;;5.28;3.35;;;;;;;22.28;40.16;95995.58;1753885;80;21458;-70
2022/05/12 08:47:46;;;;;;;3.30;3.00;;;;;;;22.11;40.25;96007.27;1765189;81;21029;-71
2022/05/12 08:50:24;;;;;;;4.85;3.40;;;;;;;22.24;42.05;96002.45;1748383;81;20982;-73
2022/05/12 08:53:05;;;;;;;5.47;3.05;;;;;;;22.48;40.82;96001.98;1749525;81;21022;-68
2022/05/12 08:55:52;;;;;;;5.37;3.45;;;;;;;22.61;38.93;96002.98;1760232;81;21002;-69
2022/05/12 08:58:40;;;;;;;3.62;2.83;;;;;;;22.52;38.42;95998.14;1764881;80;21066;-69
2022/05/12 09:01:36;;;;;;;4.40;2.87;;;;;;;22.72;38.33;95998.78;1763617;81;21080;-68
2022/05/12 09:04:13;;;;;;;5.35;3.25;;;;;;;22.92;37.35;95998.92;1765029;81;20986;-69
2022/05/12 09:07:17;;;;;;;5.75;3.30;;;;;;;23.03;39.62;95996.00;1770152;81;21018;-70
2022/05/12 09:10:10;;;;;;;5.75;3.22;;;;;;;23.26;38.73;96001.30;1754243;81;21138;-70
2022/05/12 09:13:00;;;;;;;6.50;3.10;;;;;;;23.21;37.96;96003.41;1753642;81;20994;-69
2022/05/12 09:15:34;;;;;;;6.60;3.10;;;;;;;23.18;36.86;96003.58;1747772;81;21022;-69
2022/05/12 09:18:06;;;;;;;3.40;2.72;;;;;;;23.00;37.09;95996.16;1752712;81;21049;-69
2022/05/12 09:20:36;;;;;;;3.45;2.95;;;;;;;23.10;37.95;96005.40;1767045;81;21532;-69
2022/05/12 09:23:04;;;;;;;11.38;5.12;;;;;;;23.20;36.92;95996.77;1764832;80;21022;-69
2022/05/12 09:25:41;;;;;;;5.28;3.10;;;;;;;23.25;35.70;95990.13;1760000;81;21112;-70
2022/05/12 09:28:28;;;;;;;7.47;3.50;;;;;;;23.37;37.66;95990.33;1765544;81;21554;-70
2022/05/12 09:31:01;;;;;;;32.25;8.03;;;;;;;23.40;35.65;96001.76;1757003;81;21035;-70
2022/05/12 09:33:36;;;;;;;6.53;3.37;;;;;;;23.63;37.50;95996.25;1749064;81;21497;-70
2022/05/12 09:36:08;;;;;;;8.18;3.52;;;;;;;23.76;37.95;95997.70;1749253;81;20999;-70
2022/05/12 09:38:42;;;;;;;88.25;16.80;;;;;;;23.89;37.08;95991.03;1757878;81;21512;-70
2022/05/12 09:41:22;;;;;;;6.17;3.42;;;;;;;24.09;34.85;95985.69;1756834;81;21013;-69
2022/05/12 09:43:53;;;;;;;7.22;3.35;;;;;;;24.15;34.86;95992.90;1755402;81;21027;-70
2022/05/12 09:46:29;;;;;;;83.30;19.92;;;;;;;24.39;37.59;95989.52;1746190;81;21022;-70
2022/05/12 09:48:52;;;;;;;8.55;3.30;;;;;;;24.52;36.51;95986.89;1763193;81;21010;-70
2022/05/12 09:51:32;;;;;;;4.12;3.10;;;;;;;24.49;35.19;95983.92;1744010;81;21017;-69
2022/05/12 09:54:23;;;;;;;6.03;4.37;;;;;;;24.76;37.03;95978.97;1741978;81;21511;-69
2022/05/12 09:57:01;;;;;;;4.67;3.65;;;;;;;24.97;36.53;95982.89;1746460;81;21057;-70
2022/05/12 09:59:31;;;;;;;35.48;8.43;;;;;;;24.98;34.81;95988.66;1754617;81;21030;-70
2022/05/12 10:02:06;;;;;;;5.70;2.95;;;;;;;24.94;34.01;95979.52;1735604;83;21519;-70
2022/05/12 10:10:24;;;;;;;3.67;2.83;;;;;;;25.14;34.11;95970.89;1710300;81;20994;-70
2022/05/12 10:13:15;;;;;;;3.83;2.98;;;;;;;25.31;35.31;95975.63;1731834;81;21533;-69
2022/05/12 10:15:43;;;;;;;5.83;2.90;;;;;;;25.45;33.71;95965.57;1748658;82;21083;-70
2022/05/12 10:18:38;;;;;;;3.30;3.00;;;;;;;25.53;33.47;95969.53;1774755;81;21511;-69
2022/05/12 10:21:20;;;;;;;4.05;3.20;;;;;;;25.45;34.05;95968.27;1744871;81;21054;-69
2022/05/12 10:24:02;;;;;;;8.43;3.42;;;;;;;25.47;34.19;95969.49;1744370;81;20967;-69
2022/05/12 10:26:40;;;;;;;4.50;2.70;;;;;;;25.60;32.95;95959.55;1733428;83;20999;-69
2022/05/12 10:29:57;;;;;;;5.28;2.65;;;;;;;25.43;30.60;95964.81;1765610;81;21259;-69
2022/05/12 10:33:11;;;;;;;3.87;2.70;;;;;;;25.13;30.01;95971.88;1770489;81;21148;-69
2022/05/12 10:36:04;;;;;;;5.67;2.80;;;;;;;24.85;31.16;95964.85;1778241;80;21056;-69
2022/05/12 10:38:50;;;;;;;;;;;;;;;24.99;30.50;95957.12;1782460;80;21003;-68
2022/05/12 10:41:27;;;;;;;4.55;3.20;;;;;;;25.08;35.02;95956.98;1780098;80;20135;-69
2022/05/12 10:44:14;;;;;;;5.92;3.05;;;;;;;25.47;35.91;95945.17;1779197;81;21037;-69
2022/05/12 10:46:58;;;;;;;6.47;3.40;;;;;;;25.71;34.15;95941.19;1756141;81;21523;-68
2022/05/12 10:50:07;;;;;;;5.00;3.10;;;;;;;25.88;32.16;95930.03;1778608;81;21057;-69
2022/05/12 10:53:09;;;;;;;4.85;3.00;;;;;;;25.93;32.08;95930.16;1757548;81;21022;-69
2022/05/12 10:55:47;;;;;;;4.92;3.05;;;;;;;25.93;31.73;95920.23;1779795;81;21036;-69
2022/05/12 10:58:38;;;;;;;3.80;3.08;;;;;;;25.94;31.08;95919.24;1779573;80;21024;-69
2022/05/12 11:01:22;;;;;;;5.08;3.05;;;;;;;26.10;32.36;95912.19;1768213;81;21025;-69
2022/05/12 11:04:12;;;;;;;4.17;3.00;;;;;;;26.34;34.48;95917.59;1779894;81;21005;-69
2022/05/12 11:06:44;;;;;;;3.50;2.90;;;;;;;26.34;31.14;95908.98;1773321;81;21037;-69
2022/05/12 11:09:18;;;;;;;3.75;2.40;;;;;;;26.37;32.65;95905.67;1779574;81;21014;-69
2022/05/12 11:11:51;;;;;;;4.35;2.80;;;;;;;26.54;30.97;95906.13;1768386;81;21010;-69
2022/05/12 11:14:30;;;;;;;3.62;2.65;;;;;;;26.54;30.17;95906.13;1779967;80;21519;-69
2022/05/12 11:17:18;;;;;;;3.72;2.67;;;;;;;26.71;32.55;95903.48;1779266;81;21471;-69
2022/05/12 11:19:59;;;;;;;5.97;2.70;;;;;;;26.95;32.68;95907.94;1779228;81;21030;-69
2022/05/12 11:22:37;;;;;;;5.20;3.05;;;;;;;27.04;30.91;95896.85;1780053;80;20978;-69
2022/05/12 11:25:29;;;;;;;4.70;2.90;;;;;;;27.02;28.97;95894.28;1779735;81;21518;-69
2022/05/12 11:31:28;;;;;;;2.98;2.65;;;;;;;27.11;29.42;95898.09;1784574;80;20998;-69
2022/05/12 11:34:04;;;;;;;8.43;2.90;;;;;;;26.73;29.46;95900.63;1787119;80;21507;-69
2022/05/12 11:36:44;;;;;;;5.33;2.70;;;;;;;26.92;30.33;95893.30;1787040;80;21496;-69
2022/05/12 11:39:31;;;;;;;4.50;2.75;;;;;;;27.29;31.80;95888.55;1754399;80;21456;-69
2022/05/12 11:42:15;;;;;;;4.65;2.67;;;;;;;27.49;29.58;95891.47;1782464;80;21029;-69
2022/05/12 11:45:05;;;;;;;4.03;2.98;;;;;;;27.46;29.92;95882.23;1772858;80;21018;-69
2022/05/12 11:48:06;;;;;;;5.28;2.83;;;;;;;27.74;30.09;95872.70;1780583;80;21460;-69
2022/05/12 11:50:50;;;;;;;3.47;2.87;;;;;;;28.10;28.46;95872.88;1706210;80;20963;-69
2022/05/12 11:53:50;;;;;;;3.33;2.55;;;;;;;28.50;28.41;95868.64;1771654;80;21668;-69
2022/05/12 11:56:45;;;;;;;7.08;2.98;;;;;;;28.77;26.78;95871.69;1752558;80;20999;-69
2022/05/12 11:59:20;;;;;;;4.78;2.92;;;;;;;28.94;27.29;95866.65;1780847;80;21027;-69
2022/05/12 12:02:01;;;;;;;3.60;2.55;;;;;;;29.47;26.82;95862.41;1780607;80;20992;-69
2022/05/12 12:04:47;;;;;;;3.72;2.60;;;;;;;29.70;27.19;95854.41;1780484;80;20983;-69
2022/05/12 12:07:28;;;;;;;4.62;2.30;;;;;;;29.76;26.87;95863.39;1780863;80;20994;-70
2022/05/12 12:10:12;;;;;;;2.67;2.22;;;;;;;30.18;26.88;95852.75;1748608;80;21028;-69
2022/05/12 12:12:49;;;;;;;5.15;2.37;;;;;;;30.53;25.95;95849.48;1780877;80;21017;-69
2022/05/12 12:15:32;;;;;;;4.62;2.60;;;;;;;30.39;24.52;95856.23;1780473;81;21016;-69
2022/05/12 12:18:21;;;;;;;3.80;2.70;;;;;;;30.93;26.07;95847.58;1780875;80;21003;-69